createdAt,value
2023-02-02T00:02:29.569Z,89.38
2023-02-02T00:05:22.713Z,89.29
2023-02-02T00:08:15.969Z,89.36
2023-02-02T00:11:09.059Z,89.17
2023-02-02T00:14:02.187Z,89.07
2023-02-02T00:16:55.620Z,89.02
2023-02-02T00:19:49.068Z,88.77
2023-02-02T00:22:41.809Z,88.72
2023-02-02T00:25:34.907Z,88.59
2023-02-02T00:28:27.648Z,88.67
2023-02-02T00:31:13.908Z,88.49
2023-02-02T00:34:06.791Z,88.56
2023-02-02T00:37:00.148Z,88.55
2023-02-02T00:39:53.149Z,88.45
2023-02-02T00:42:50.540Z,88.32
2023-02-02T00:45:43.397Z,88.33
2023-02-02T00:48:36.442Z,88.41
2023-02-02T00:51:29.246Z,88.42
2023-02-02T00:54:22.903Z,88.51
2023-02-02T00:57:17.396Z,88.58
2023-02-02T01:00:15.281Z,88.56
2023-02-02T01:03:08.248Z,88.46
2023-02-02T01:06:01.032Z,88.64
2023-02-02T01:08:53.855Z,88.81
2023-02-02T01:11:46.702Z,88.90
2023-02-02T01:14:39.448Z,89.04
2023-02-02T01:17:32.385Z,89.01
2023-02-02T01:20:25.944Z,89.09
2023-02-02T01:23:18.896Z,89.08
2023-02-02T01:26:13.964Z,89.30
2023-02-02T01:29:07.473Z,89.45
2023-02-02T01:32:00.872Z,89.50
2023-02-02T01:34:53.070Z,89.72
2023-02-02T01:37:45.989Z,89.91
2023-02-02T01:40:38.894Z,89.89
2023-02-02T01:43:52.809Z,89.85
2023-02-02T01:46:46.786Z,90.04
2023-02-02T01:49:41.530Z,90.13
2023-02-02T01:52:37.133Z,90.05
2023-02-02T01:55:32.900Z,90.23
2023-02-02T01:58:27.390Z,90.27
2023-02-02T02:01:20.364Z,90.38
2023-02-02T02:04:13.672Z,90.43
2023-02-02T02:07:02.357Z,90.39
2023-02-02T02:09:55.448Z,90.69
2023-02-02T02:12:49.021Z,90.72
2023-02-02T02:16:20.146Z,90.76
2023-02-02T02:19:27.308Z,90.71
2023-02-02T02:22:39.817Z,90.60
2023-02-02T02:26:16.416Z,90.65
2023-02-02T02:29:35.909Z,90.56
2023-02-02T02:32:37.932Z,90.61
2023-02-02T02:35:38.431Z,90.73
2023-02-02T02:38:40.186Z,90.81
2023-02-02T02:41:39.423Z,90.79
2023-02-02T02:44:33.750Z,91.06
2023-02-02T02:47:27.242Z,91.13
2023-02-02T02:50:20.607Z,91.36
2023-02-02T02:53:17.247Z,91.52
2023-02-02T02:56:18.815Z,91.56
2023-02-02T02:59:19.797Z,91.58
2023-02-02T03:02:41.271Z,91.61
2023-02-02T03:05:43.192Z,91.61
2023-02-02T03:08:41.689Z,91.64
2023-02-02T03:11:35.686Z,91.54
2023-02-02T03:14:28.887Z,91.60
2023-02-02T03:17:21.968Z,91.45
2023-02-02T03:20:06.552Z,91.50
2023-02-02T03:22:59.444Z,91.71
2023-02-02T03:25:52.411Z,91.80
2023-02-02T03:28:38.542Z,91.66
2023-02-02T03:31:32.317Z,91.66
2023-02-02T03:34:25.435Z,91.75
2023-02-02T03:37:19.856Z,91.78
2023-02-02T03:40:14.918Z,91.54
2023-02-02T03:43:08.239Z,91.66
2023-02-02T03:46:04.533Z,91.58
2023-02-02T03:48:50.137Z,91.66
2023-02-02T03:51:44.524Z,91.59
2023-02-02T03:54:38.459Z,91.84
2023-02-02T03:57:31.476Z,91.76
2023-02-02T04:00:26.620Z,91.77
2023-02-02T04:03:19.721Z,91.85
2023-02-02T04:06:14.544Z,91.67
2023-02-02T04:09:07.496Z,91.67
2023-02-02T04:12:03.451Z,91.52
2023-02-02T04:14:56.369Z,91.57
2023-02-02T04:17:51.006Z,91.54
2023-02-02T04:20:43.985Z,91.66
2023-02-02T04:23:37.276Z,91.47
2023-02-02T04:26:30.445Z,91.29
2023-02-02T04:29:23.696Z,91.43
2023-02-02T04:32:17.661Z,91.37
2023-02-02T04:35:12.084Z,91.58
2023-02-02T04:38:05.210Z,91.50
2023-02-02T04:40:59.329Z,91.61
2023-02-02T04:43:52.440Z,91.66
2023-02-02T04:46:47.343Z,91.47
2023-02-02T04:49:40.145Z,91.41
2023-02-02T04:52:35.426Z,91.64
2023-02-02T04:55:18.441Z,91.51
2023-02-02T04:58:11.658Z,91.73
2023-02-02T05:01:11.847Z,91.64
2023-02-02T05:03:54.231Z,91.56
2023-02-02T05:06:47.449Z,91.44
2023-02-02T05:09:42.088Z,91.34
2023-02-02T05:12:35.061Z,91.51
2023-02-02T05:15:28.076Z,91.48
2023-02-02T05:18:22.203Z,91.44
2023-02-02T05:21:15.180Z,91.26
2023-02-02T05:24:08.549Z,91.23
2023-02-02T05:27:01.719Z,91.04
2023-02-02T05:29:54.520Z,90.91
2023-02-02T05:32:47.476Z,90.93
2023-02-02T05:35:39.425Z,91.03
2023-02-02T05:38:32.680Z,91.04
2023-02-02T05:41:25.961Z,91.25
2023-02-02T05:44:19.643Z,91.28
2023-02-02T05:47:14.210Z,91.53
2023-02-02T05:50:08.225Z,91.74
2023-02-02T05:53:02.952Z,91.80
2023-02-02T05:55:55.984Z,91.75
2023-02-02T05:58:50.622Z,91.90
2023-02-02T06:01:43.479Z,92.12
2023-02-02T06:04:38.975Z,92.08
2023-02-02T06:07:32.195Z,91.94
2023-02-02T06:10:26.891Z,91.79
2023-02-02T06:13:19.671Z,91.84
2023-02-02T06:16:13.947Z,91.80
2023-02-02T06:19:06.732Z,91.66
2023-02-02T06:21:59.675Z,91.57
2023-02-02T06:24:53.633Z,91.66
2023-02-02T06:27:46.589Z,91.58
2023-02-02T06:30:27.224Z,91.40
2023-02-02T06:33:20.337Z,91.27
2023-02-02T06:36:13.514Z,91.09
2023-02-02T06:39:00.609Z,90.77
2023-02-02T06:41:53.724Z,90.63
2023-02-02T06:44:46.600Z,90.18
2023-02-02T06:47:39.343Z,89.98
2023-02-02T06:50:32.478Z,89.65
2023-02-02T06:53:26.848Z,89.73
2023-02-02T06:56:19.995Z,89.31
2023-02-02T06:59:13.148Z,89.28
2023-02-02T07:02:06.022Z,88.68
2023-02-02T07:04:57.954Z,88.43
2023-02-02T07:07:53.772Z,88.31
2023-02-02T07:11:12.718Z,87.88
2023-02-02T07:13:51.443Z,87.42
2023-02-02T07:16:44.169Z,87.11
2023-02-02T07:19:31.428Z,87.20
2023-02-02T07:22:24.252Z,86.53
2023-02-02T07:25:17.130Z,86.12
2023-02-02T07:28:00.290Z,85.72
2023-02-02T07:30:43.137Z,85.30
2023-02-02T07:33:40.212Z,85.34
2023-02-02T07:36:27.535Z,85.22
2023-02-02T07:39:10.394Z,84.58
2023-02-02T07:41:53.532Z,84.58
2023-02-02T07:44:49.266Z,84.22
2023-02-02T07:47:43.280Z,83.72
2023-02-02T07:50:36.718Z,83.37
2023-02-02T07:53:30.998Z,83.24
2023-02-02T07:56:15.493Z,83.21
2023-02-02T07:59:07.045Z,82.77
2023-02-02T08:01:58.536Z,82.73
2023-02-02T08:04:43.978Z,82.92
2023-02-02T08:07:38.714Z,82.60
2023-02-02T08:10:31.593Z,82.22
2023-02-02T08:13:25.341Z,81.82
2023-02-02T08:16:17.678Z,81.79
2023-02-02T08:19:11.051Z,80.89
2023-02-02T08:22:04.772Z,81.04
2023-02-02T08:24:48.198Z,80.78
2023-02-02T08:27:35.232Z,80.37
2023-02-02T08:30:29.784Z,79.95
2023-02-02T08:33:22.628Z,79.78
2023-02-02T08:36:06.068Z,79.75
2023-02-02T08:39:02.979Z,78.81
2023-02-02T08:41:59.782Z,79.15
2023-02-02T08:46:12.727Z,78.37
2023-02-02T08:48:10.710Z,78.89
2023-02-02T08:50:59.217Z,77.95
2023-02-02T08:53:51.747Z,77.11
2023-02-02T08:56:44.645Z,76.73
2023-02-02T08:59:38.009Z,76.06
2023-02-02T09:02:23.291Z,75.38
2023-02-02T09:05:16.179Z,75.13
2023-02-02T09:08:09.082Z,73.76
2023-02-02T09:11:06.264Z,73.56
2023-02-02T09:14:02.294Z,73.49
2023-02-02T09:16:56.535Z,73.57
2023-02-02T09:19:39.429Z,74.06
2023-02-02T09:22:24.843Z,73.44
2023-02-02T09:25:18.028Z,73.91
2023-02-02T09:28:11.013Z,74.20
2023-02-02T09:30:56.602Z,74.07
2023-02-02T09:33:42.611Z,75.44
2023-02-02T09:36:27.030Z,75.65
2023-02-02T09:39:29.527Z,76.14
2023-02-02T09:42:42.941Z,76.50
2023-02-02T09:45:47.544Z,77.38
2023-02-02T09:48:52.282Z,77.76
2023-02-02T09:51:50.814Z,78.54
2023-02-02T09:54:49.682Z,79.05
2023-02-02T09:57:47.525Z,79.68
2023-02-02T10:00:45.688Z,80.17
2023-02-02T10:03:45.465Z,80.31
2023-02-02T10:06:38.689Z,80.60
2023-02-02T10:09:41.266Z,79.91
2023-02-02T10:12:47.952Z,79.74
2023-02-02T10:15:45.223Z,80.35
2023-02-02T10:18:46.157Z,81.16
2023-02-02T10:21:46.848Z,81.80
2023-02-02T10:24:40.173Z,82.12
2023-02-02T10:27:39.592Z,82.28
2023-02-02T10:30:45.866Z,82.40
2023-02-02T10:33:41.018Z,82.71
2023-02-02T10:36:36.019Z,83.04
2023-02-02T10:39:41.807Z,83.32
2023-02-02T10:43:06.937Z,83.05
2023-02-02T10:45:55.995Z,83.05
2023-02-02T10:48:37.394Z,83.43
2023-02-02T10:51:31.289Z,83.40
2023-02-02T10:54:54.962Z,83.57
2023-02-02T10:57:59.420Z,83.98
2023-02-02T11:00:54.508Z,84.68
2023-02-02T11:03:47.892Z,85.06
2023-02-02T11:06:50.914Z,85.30
2023-02-02T11:09:45.631Z,85.43
2023-02-02T11:12:41.305Z,85.83
2023-02-02T11:15:33.625Z,86.01
2023-02-02T11:18:33.396Z,86.27
2023-02-02T11:21:28.692Z,86.36
2023-02-02T11:24:25.949Z,86.52
2023-02-02T11:27:26.137Z,86.53
2023-02-02T11:30:29.100Z,87.08
2023-02-02T11:33:28.914Z,87.67
2023-02-02T11:36:23.655Z,88.03
2023-02-02T11:39:22.885Z,88.50
2023-02-02T11:42:21.438Z,88.58
2023-02-02T11:45:21.387Z,88.83
2023-02-02T11:48:20.436Z,89.31
2023-02-02T11:51:25.864Z,89.83
2023-02-02T11:54:25.149Z,90.24
2023-02-02T11:57:22.753Z,90.38
2023-02-02T12:00:28.816Z,90.48
2023-02-02T12:03:33.217Z,90.40
2023-02-02T12:06:23.699Z,90.28
2023-02-02T12:09:22.526Z,89.69
2023-02-02T12:12:43.945Z,89.37
2023-02-02T12:15:47.786Z,89.17
2023-02-02T12:18:55.674Z,89.19
2023-02-02T12:21:50.619Z,88.94
2023-02-02T12:24:52.523Z,88.90
2023-02-02T12:27:57.472Z,89.14
2023-02-02T12:31:00.002Z,88.91
2023-02-02T12:34:02.319Z,89.29
2023-02-02T12:37:04.463Z,89.64
2023-02-02T12:40:17.701Z,89.68
2023-02-02T12:43:22.954Z,89.80
2023-02-02T12:46:40.707Z,89.85
2023-02-02T12:49:54.624Z,89.79
2023-02-02T12:53:08.819Z,90.01
2023-02-02T12:56:16.670Z,89.98
2023-02-02T12:59:19.836Z,90.01
2023-02-02T13:02:07.490Z,90.17
2023-02-02T13:05:14.532Z,90.04
2023-02-02T13:08:10.973Z,89.71
2023-02-02T13:11:31.064Z,89.54
2023-02-02T13:14:29.032Z,89.10
2023-02-02T13:17:27.282Z,89.14
2023-02-02T13:20:33.187Z,89.42
2023-02-02T13:23:30.306Z,89.44
2023-02-02T13:26:14.197Z,89.52
2023-02-02T13:29:03.662Z,89.73
2023-02-02T13:32:01.878Z,89.26
2023-02-02T13:34:58.555Z,89.31
2023-02-02T13:38:00.736Z,89.58
2023-02-02T13:40:56.305Z,90.04
2023-02-02T13:43:58.398Z,89.94
2023-02-02T13:46:58.086Z,89.68
2023-02-02T13:49:54.857Z,89.84
2023-02-02T13:53:10.671Z,89.54
2023-02-02T13:56:25.625Z,89.58
2023-02-02T13:59:37.100Z,89.81
2023-02-02T14:02:39.828Z,89.96
2023-02-02T14:05:36.103Z,90.18
2023-02-02T14:08:30.879Z,90.14
2023-02-02T14:11:28.729Z,90.45
2023-02-02T14:14:35.330Z,90.66
2023-02-02T14:17:56.375Z,90.80
2023-02-02T14:20:52.693Z,90.85
2023-02-02T14:23:56.451Z,91.08
2023-02-02T14:26:54.436Z,91.13
2023-02-02T14:30:17.751Z,91.02
2023-02-02T14:33:47.584Z,91.21
2023-02-02T14:36:52.986Z,91.61
2023-02-02T14:39:59.105Z,91.73
2023-02-02T14:43:25.629Z,91.63
2023-02-02T14:46:37.826Z,91.74
2023-02-02T14:49:39.207Z,91.95
2023-02-02T14:52:34.735Z,92.18
2023-02-02T14:55:30.377Z,92.18
2023-02-02T14:58:26.303Z,92.20
2023-02-02T15:01:24.859Z,92.32
2023-02-02T15:04:28.289Z,92.14
2023-02-02T15:07:40.266Z,92.18
2023-02-02T15:11:22.616Z,92.09
2023-02-02T15:14:10.748Z,92.26
2023-02-02T15:16:59.437Z,92.36
2023-02-02T15:19:57.492Z,92.34
2023-02-02T15:22:52.353Z,92.49
2023-02-02T15:25:49.259Z,92.23
2023-02-02T15:28:49.678Z,92.43
2023-02-02T15:31:47.721Z,92.64
2023-02-02T15:34:48.789Z,92.81
2023-02-02T15:37:45.843Z,92.80
2023-02-02T15:40:40.943Z,92.92
2023-02-02T15:43:30.126Z,92.91
2023-02-02T15:46:26.542Z,92.60
2023-02-02T15:49:36.039Z,92.36
2023-02-02T15:52:33.178Z,92.36
2023-02-02T15:55:27.190Z,92.21
2023-02-02T15:58:29.144Z,92.00
2023-02-02T16:01:25.552Z,91.93
2023-02-02T16:04:22.458Z,91.77
2023-02-02T16:07:22.270Z,91.82
2023-02-02T16:10:23.859Z,91.64
2023-02-02T16:13:26.795Z,91.56
2023-02-02T16:16:29.113Z,91.54
2023-02-02T16:19:25.220Z,91.33
2023-02-02T16:22:21.319Z,91.36
2023-02-02T16:25:23.421Z,90.58
2023-02-02T16:28:18.736Z,90.69
2023-02-02T16:31:07.822Z,90.48
2023-02-02T16:34:02.793Z,90.60
2023-02-02T16:37:17.872Z,90.69
2023-02-02T16:40:29.810Z,90.56
2023-02-02T16:43:29.534Z,90.25
2023-02-02T16:46:45.720Z,90.25
2023-02-02T16:49:30.231Z,90.33
2023-02-02T16:52:24.543Z,90.54
2023-02-02T16:55:14.698Z,90.77
2023-02-02T16:58:07.562Z,90.93
2023-02-02T17:01:14.165Z,91.32
2023-02-02T17:04:17.517Z,91.40
2023-02-02T17:07:11.772Z,91.53
2023-02-02T17:10:14.044Z,91.48
2023-02-02T17:13:01.643Z,91.44
2023-02-02T17:15:54.814Z,91.38
2023-02-02T17:18:48.134Z,91.48
2023-02-02T17:21:41.193Z,91.42
2023-02-02T17:24:27.265Z,91.43
2023-02-02T17:27:03.627Z,91.30
2023-02-02T17:30:01.155Z,91.11
2023-02-02T17:32:54.297Z,90.88
2023-02-02T17:35:55.730Z,90.73
2023-02-02T17:38:40.806Z,90.76
2023-02-02T17:41:16.984Z,90.96
2023-02-02T17:43:49.771Z,90.95
2023-02-02T17:46:35.216Z,91.35
2023-02-02T17:49:28.070Z,91.56
2023-02-02T17:52:11.091Z,91.55
2023-02-02T17:54:52.007Z,92.01
2023-02-02T17:57:27.780Z,92.68
2023-02-02T18:00:23.427Z,92.73
2023-02-02T18:03:19.447Z,92.69
2023-02-02T18:06:00.669Z,92.74
2023-02-02T18:08:45.689Z,92.97
2023-02-02T18:11:38.880Z,93.01
2023-02-02T18:14:14.600Z,92.94
2023-02-02T18:16:47.409Z,92.91
2023-02-02T18:19:33.161Z,92.78
2023-02-02T18:22:18.685Z,92.60
2023-02-02T18:25:12.209Z,92.44
2023-02-02T18:27:57.832Z,92.26
2023-02-02T18:30:30.617Z,92.21
2023-02-02T18:33:03.451Z,92.25
2023-02-02T18:35:42.084Z,91.93
2023-02-02T18:38:19.720Z,91.80
2023-02-02T18:40:59.079Z,91.65
2023-02-02T18:43:32.485Z,91.48
2023-02-02T18:46:10.358Z,91.66
2023-02-02T18:48:48.387Z,91.51
2023-02-02T18:51:22.159Z,91.53
2023-02-02T18:54:00.405Z,91.47
2023-02-02T18:56:33.495Z,91.51
2023-02-02T18:59:06.946Z,91.69
2023-02-02T19:02:02.611Z,92.00
2023-02-02T19:04:37.113Z,92.21
2023-02-02T19:07:30.706Z,92.35
2023-02-02T19:10:14.202Z,92.19
2023-02-02T19:12:53.155Z,91.99
2023-02-02T19:15:47.244Z,92.18
2023-02-02T19:18:40.018Z,92.05
2023-02-02T19:21:20.238Z,92.23
2023-02-02T19:24:15.925Z,92.39
2023-02-02T19:26:54.096Z,92.76
2023-02-02T19:29:41.309Z,92.89
2023-02-02T19:32:27.020Z,92.60
2023-02-02T19:35:24.551Z,92.68
2023-02-02T19:38:07.779Z,92.58
2023-02-02T19:40:43.597Z,92.62
2023-02-02T19:43:37.182Z,92.58
2023-02-02T19:46:34.289Z,92.50
2023-02-02T19:49:16.224Z,92.50
2023-02-02T19:52:03.879Z,92.49
2023-02-02T19:54:57.040Z,92.39
2023-02-02T19:57:50.171Z,92.22
2023-02-02T20:00:44.998Z,92.17
2023-02-02T20:03:46.616Z,91.96
2023-02-02T20:06:27.026Z,92.00
2023-02-02T20:09:15.419Z,91.88
2023-02-02T20:12:23.564Z,91.84
2023-02-02T20:14:58.686Z,91.64
2023-02-02T20:17:34.566Z,91.58
2023-02-02T20:20:30.010Z,91.31
2023-02-02T20:23:04.282Z,91.24
2023-02-02T20:25:41.674Z,90.96
2023-02-02T20:28:32.704Z,90.96
2023-02-02T20:31:18.347Z,90.56
2023-02-02T20:33:53.375Z,90.27
2023-02-02T20:36:39.288Z,90.12
2023-02-02T20:39:36.812Z,90.07
2023-02-02T20:42:20.921Z,89.99
2023-02-02T20:44:58.308Z,89.94
2023-02-02T20:47:52.482Z,89.61
2023-02-02T20:50:31.335Z,89.58
2023-02-02T20:53:10.099Z,89.35
2023-02-02T20:55:47.320Z,89.16
2023-02-02T20:58:33.065Z,89.11
2023-02-02T21:01:26.287Z,89.16
2023-02-02T21:04:21.339Z,88.65
2023-02-02T21:07:14.237Z,89.06
2023-02-02T21:10:07.977Z,89.15
2023-02-02T21:13:00.769Z,89.15
2023-02-02T21:15:53.514Z,89.13
2023-02-02T21:18:47.362Z,89.19
2023-02-02T21:21:40.472Z,89.18
2023-02-02T21:24:33.439Z,89.36
2023-02-02T21:27:26.246Z,89.54
2023-02-02T21:30:03.755Z,89.73
2023-02-02T21:32:58.174Z,89.72
2023-02-02T21:35:51.038Z,89.83
2023-02-02T21:38:45.238Z,89.70
2023-02-02T21:41:38.507Z,89.57
2023-02-02T21:44:27.615Z,89.41
2023-02-02T21:47:29.916Z,89.38
2023-02-02T21:50:21.376Z,89.24
2023-02-02T21:53:22.202Z,89.23
2023-02-02T21:56:33.519Z,89.22
2023-02-02T21:59:31.108Z,88.90
2023-02-02T22:02:45.317Z,89.02
2023-02-02T22:05:39.062Z,89.02
2023-02-02T22:08:36.707Z,89.05
2023-02-02T22:11:31.269Z,89.12
2023-02-02T22:14:21.773Z,89.16
2023-02-02T22:17:23.133Z,89.24
2023-02-02T22:20:30.833Z,89.45
2023-02-02T22:23:04.722Z,89.53
2023-02-02T22:25:59.291Z,89.64
2023-02-02T22:28:52.178Z,89.68
2023-02-02T22:31:44.985Z,89.41
2023-02-02T22:34:30.924Z,89.30
2023-02-02T22:37:23.819Z,89.46
2023-02-02T22:40:22.692Z,89.48
2023-02-02T22:43:16.371Z,89.38
2023-02-02T22:46:09.315Z,89.44
2023-02-02T22:49:00.976Z,89.31
2023-02-02T22:51:46.132Z,89.33
2023-02-02T22:54:38.900Z,89.20
2023-02-02T22:57:32.247Z,89.11
2023-02-02T23:00:28.067Z,88.94
2023-02-02T23:03:21.143Z,88.90
2023-02-02T23:06:14.126Z,88.89
2023-02-02T23:09:06.993Z,88.93
2023-02-02T23:11:59.750Z,89.00
2023-02-02T23:14:52.579Z,88.97
2023-02-02T23:17:45.475Z,89.07
2023-02-02T23:20:38.442Z,89.15
2023-02-02T23:23:31.270Z,89.12
2023-02-02T23:26:24.475Z,89.11
2023-02-02T23:29:17.384Z,88.84
2023-02-02T23:32:10.334Z,88.83
2023-02-02T23:35:03.546Z,88.91
2023-02-02T23:37:56.423Z,88.67
2023-02-02T23:40:41.547Z,88.36
2023-02-02T23:43:26.931Z,87.95
2023-02-02T23:46:23.145Z,87.82
2023-02-02T23:49:16.320Z,87.64
2023-02-02T23:52:09.961Z,87.58
2023-02-02T23:55:02.846Z,87.67
2023-02-02T23:57:57.841Z,87.58
